KLVM/LVM METAR and TAF weather

Enter ICAO airport designator
Station Type Date Time Source
KLVM METAR 2020/01/23 17:53 UTC NOAA

KLVM 231753Z AUTO 26017G29KT 10SM SCT045 OVC055 05/M06 A3010 RMK AO2 PK WND 25030/1714 SLP212 T00501056 10050 20006 52002


Station Type Date Time Source
KLVM Decoded METAR 2020/01/23 17:53 UTC NOAA

LIVINGSTON MISSION FIELD, MT, United States (KLVM) 45-42N 110-26W 1418M
Jan 23, 2020 - 12:53 PM EST / 2020.01.23 1753 UTC
Wind: from the W (260 degrees) at 20 MPH (17 KT) gusting to 33 MPH (29 KT):0
Visibility: 10 mile(s):0
Sky conditions: overcast
Temperature: 41.0 F (5.0 C)
Dew Point: 21.9 F (-5.6 C)
Relative Humidity: 46%
Pressure (altimeter): 30.1 in. Hg (1019 hPa)
Pressure tendency: 0.01 inches (0.2 hPa) higher than three hours ago
ob: KLVM 231753Z AUTO 26017G29KT 10SM SCT045 OVC055 05/M06 A3010 RMK AO2 PK WND 25030/1714 SLP212 T00501056 10050 20006 52002
cycle: 18

Station Type Date Time Source
KLVM TAF 2020/01/23 18:34 UTC NOAA

TAF KLVM 231731Z 2318/2418 24018G26KT P6SM VCSH FEW040 BKN080
FM240000 23023G35KT P6SM VCSH FEW040 BKN060

Example: see airport list